Time;durP1;ratioP1;P1;durP2;ratioP2;P2;SDS_P1;SDS_P2;PMS_P1;PMS_P2;Temp;Humidity;BMP_temperature;BMP_pressure;BME280_temperature;BME280_humidity;BME280_pressure;Samples;Min_cycle;Max_cycle;Signal;HPM_P1;HPM_P2
2021/07/24 00:00:08;;;;;;;7.10;5.70;;;;;;;15.53;74.62;101650.59;3590620;40;20243;-79
2021/07/24 00:02:34;;;;;;;8.57;7.30;;;;;;;15.50;74.22;101646.25;3591586;40;20517;-79
2021/07/24 00:04:59;;;;;;;8.67;7.30;;;;;;;15.49;74.29;101649.69;3580095;40;20236;-79
2021/07/24 00:07:25;;;;;;;8.80;7.37;;;;;;;15.47;74.42;101642.78;3591502;40;20240;-79
2021/07/24 00:09:50;;;;;;;8.10;6.20;;;;;;;15.45;74.50;101645.31;3591142;40;20233;-79
2021/07/24 00:12:15;;;;;;;7.30;6.20;;;;;;;15.44;74.28;101641.03;3591586;40;20213;-78
2021/07/24 00:14:40;;;;;;;9.27;7.07;;;;;;;15.43;74.60;101646.16;3591224;40;20716;-78
2021/07/24 00:17:06;;;;;;;9.47;7.33;;;;;;;15.40;74.53;101646.09;3587860;40;20224;-78
2021/07/24 00:19:31;;;;;;;8.43;7.10;;;;;;;15.38;74.63;101640.06;3583164;40;20327;-78
2021/07/24 00:21:56;;;;;;;8.53;6.83;;;;;;;15.36;74.14;101640.06;3581534;40;20303;-78
2021/07/24 00:24:22;;;;;;;8.27;6.67;;;;;;;15.35;74.83;101632.28;3581200;40;20241;-78
2021/07/24 00:26:48;;;;;;;8.13;7.10;;;;;;;15.34;74.63;101635.72;3582073;40;20305;-78
2021/07/24 00:29:14;;;;;;;8.63;7.37;;;;;;;15.30;74.58;101639.06;3581034;40;20230;-78
2021/07/24 00:31:39;;;;;;;8.63;6.80;;;;;;;15.30;75.12;101639.94;3581771;40;20291;-78
2021/07/24 00:34:04;;;;;;;10.07;7.40;;;;;;;15.34;74.36;101630.56;3578254;40;20236;-78
2021/07/24 00:36:30;;;;;;;9.07;7.07;;;;;;;15.31;74.46;101631.34;3591247;40;20244;-78
2021/07/24 00:38:55;;;;;;;7.87;6.03;;;;;;;15.28;74.48;101641.63;3590193;40;20284;-79
2021/07/24 00:41:31;;;;;;;9.27;7.40;;;;;;;15.25;74.65;101630.41;3590774;40;20235;-78
2021/07/24 00:44:00;;;;;;;10.03;7.17;;;;;;;15.22;74.81;101630.34;3591535;40;20237;-78
2021/07/24 00:46:29;;;;;;;6.07;5.37;;;;;;;15.24;75.18;101623.50;3590912;40;20236;-78
2021/07/24 00:48:55;;;;;;;9.93;7.30;;;;;;;15.23;75.04;101640.69;3581358;40;20275;-78
2021/07/24 00:51:27;;;;;;;8.03;6.50;;;;;;;15.22;74.97;101630.34;3582131;40;20225;-79
2021/07/24 00:53:54;;;;;;;10.83;7.40;;;;;;;15.20;75.14;101626.91;3591252;40;20253;-78
2021/07/24 00:56:21;;;;;;;8.57;7.20;;;;;;;15.19;75.37;101627.75;3590778;40;20229;-78
2021/07/24 00:58:47;;;;;;;9.47;7.00;;;;;;;15.15;75.53;101629.41;3581657;40;20248;-78
2021/07/24 01:01:12;;;;;;;8.80;6.50;;;;;;;15.16;75.07;101633.75;3579915;40;20234;-78
2021/07/24 01:03:37;;;;;;;10.00;6.93;;;;;;;15.15;75.57;101631.13;3572301;40;20238;-78
2021/07/24 01:06:03;;;;;;;8.57;6.50;;;;;;;15.14;75.02;101626.81;3585272;40;20252;-78
2021/07/24 01:08:35;;;;;;;7.70;6.90;;;;;;;15.11;75.45;101632.78;3571912;40;20245;-78
2021/07/24 01:11:00;;;;;;;9.43;8.07;;;;;;;15.10;75.94;101638.78;3580917;40;20225;-78
2021/07/24 01:13:25;;;;;;;8.07;6.93;;;;;;;15.10;75.85;101627.63;3581461;40;20268;-78
2021/07/24 01:15:52;;;;;;;9.73;7.43;;;;;;;15.08;75.72;101626.72;3581044;40;20295;-78
2021/07/24 01:18:18;;;;;;;9.33;7.40;;;;;;;15.07;75.60;101630.16;3574355;40;20627;-78
2021/07/24 01:20:44;;;;;;;7.63;6.17;;;;;;;15.05;75.13;101637.00;3587531;40;20237;-78
2021/07/24 01:23:10;;;;;;;10.40;7.30;;;;;;;15.04;75.43;101637.84;3590210;40;20244;-78
2021/07/24 01:25:43;;;;;;;9.40;7.50;;;;;;;15.00;75.67;101633.47;3591165;40;20217;-78
2021/07/24 01:28:09;;;;;;;11.47;8.27;;;;;;;14.99;75.76;101639.50;3591342;40;20221;-78
2021/07/24 01:30:34;;;;;;;8.60;6.33;;;;;;;14.96;75.44;101640.31;3590499;40;20229;-78
2021/07/24 01:32:59;;;;;;;9.10;7.13;;;;;;;14.91;75.62;101636.81;3580964;40;20620;-78
2021/07/24 01:35:24;;;;;;;8.90;7.87;;;;;;;14.89;75.46;101632.47;3590563;40;20221;-79
2021/07/24 01:37:50;;;;;;;11.90;8.63;;;;;;;14.84;75.68;101632.41;3581326;40;20233;-78
2021/07/24 01:40:15;;;;;;;9.37;7.07;;;;;;;14.85;75.78;101636.72;3590324;40;20603;-78
2021/07/24 01:42:40;;;;;;;8.80;7.67;;;;;;;14.83;76.41;101635.81;3590776;40;20241;-78
2021/07/24 01:45:06;;;;;;;9.97;7.53;;;;;;;14.82;75.82;101636.66;3591194;40;20595;-78
2021/07/24 01:47:34;;;;;;;7.20;6.33;;;;;;;14.80;75.69;101635.78;3590349;40;20221;-78
2021/07/24 01:52:49;;;;;;;9.73;7.07;;;;;;;14.71;75.89;101638.22;3595369;40;20244;-78
2021/07/24 01:55:32;;;;;;;8.43;6.80;;;;;;;14.69;75.66;101633.91;3594519;40;20482;-78
2021/07/24 01:58:02;;;;;;;9.40;7.37;;;;;;;14.63;76.01;101628.63;3580706;40;20218;-78
2021/07/24 02:00:29;;;;;;;9.50;7.87;;;;;;;14.60;75.90;101626.00;3578055;40;20226;-77
2021/07/24 02:02:56;;;;;;;8.00;6.57;;;;;;;14.58;76.23;101618.25;3580018;40;20532;-78
2021/07/24 02:05:40;;;;;;;9.57;7.40;;;;;;;14.54;76.06;101620.78;3583033;40;20221;-78
2021/07/24 02:08:06;;;;;;;8.77;7.57;;;;;;;14.48;75.73;101625.81;3590485;40;20228;-78
2021/07/24 02:10:32;;;;;;;7.27;6.50;;;;;;;14.42;75.50;101618.88;3590256;40;20286;-78
2021/07/24 02:12:59;;;;;;;7.00;5.60;;;;;;;14.39;75.25;101612.78;3589981;40;20251;-78
2021/07/24 02:15:24;;;;;;;10.23;7.70;;;;;;;14.32;75.12;101614.38;3579971;40;20229;-78
2021/07/24 02:17:49;;;;;;;9.53;7.37;;;;;;;14.28;75.35;101609.16;3590183;40;20514;-77
2021/07/24 02:20:19;;;;;;;8.53;6.97;;;;;;;14.23;75.44;101611.66;3590409;40;20240;-78
2021/07/24 02:22:44;;;;;;;9.53;7.20;;;;;;;14.20;75.77;101601.31;3571442;40;20273;-78
2021/07/24 02:25:09;;;;;;;9.43;7.20;;;;;;;14.19;75.18;101596.97;3584306;40;20604;-78
2021/07/24 02:27:35;;;;;;;9.23;7.43;;;;;;;14.15;75.51;101594.31;3570905;40;20248;-78
2021/07/24 02:30:00;;;;;;;6.90;6.03;;;;;;;14.12;75.48;101599.41;3579935;40;20685;-79
2021/07/24 02:32:25;;;;;;;7.97;7.03;;;;;;;14.07;75.60;101593.31;3570631;40;20229;-78
2021/07/24 02:34:50;;;;;;;7.60;6.50;;;;;;;14.03;76.12;101591.50;3579950;40;20221;-78
2021/07/24 02:37:16;;;;;;;9.10;7.17;;;;;;;13.98;75.38;101583.72;3579908;40;20218;-78
2021/07/24 02:39:41;;;;;;;8.80;7.00;;;;;;;13.96;75.14;101579.38;3570925;40;20326;-78
2021/07/24 02:42:06;;;;;;;7.97;7.10;;;;;;;13.91;75.25;101573.28;3580295;40;20244;-78
2021/07/24 02:44:32;;;;;;;9.97;7.17;;;;;;;13.86;75.62;101577.50;3570233;40;20249;-78
2021/07/24 02:46:57;;;;;;;9.13;6.93;;;;;;;13.86;75.63;101572.34;3570310;40;20226;-77
2021/07/24 02:49:23;;;;;;;10.07;7.57;;;;;;;13.81;75.85;101569.66;3579627;40;20228;-78
2021/07/24 02:51:48;;;;;;;8.50;7.10;;;;;;;13.79;75.81;101560.19;3579490;40;20669;-78
2021/07/24 02:54:13;;;;;;;11.07;7.97;;;;;;;13.78;76.18;101555.88;3579056;40;20241;-77
2021/07/24 02:56:39;;;;;;;8.77;6.93;;;;;;;13.79;76.65;101566.22;3579990;40;20222;-77
2021/07/24 02:59:04;;;;;;;9.30;7.57;;;;;;;13.81;76.25;101561.09;3580210;40;20298;-78
2021/07/24 03:01:29;;;;;;;8.80;7.70;;;;;;;13.83;76.74;101557.72;3580275;40;20217;-78
2021/07/24 03:03:55;;;;;;;10.20;7.70;;;;;;;13.84;76.57;101559.44;3589374;40;20252;-78
2021/07/24 03:06:20;;;;;;;9.77;7.93;;;;;;;13.87;76.99;101559.50;3589330;40;20217;-77
2021/07/24 03:08:45;;;;;;;8.90;7.20;;;;;;;13.90;77.16;101546.66;3590104;40;20637;-78
2021/07/24 03:11:10;;;;;;;9.50;7.53;;;;;;;13.90;77.20;101544.09;3588181;40;20221;-77
2021/07/24 03:13:36;;;;;;;6.90;6.20;;;;;;;13.88;76.71;101534.59;3589569;40;20273;-78
2021/07/24 03:16:01;;;;;;;9.43;7.17;;;;;;;13.86;77.03;101529.41;3591020;40;20225;-78
2021/07/24 03:18:26;;;;;;;7.77;6.17;;;;;;;13.88;76.99;101529.44;3588188;40;20631;-77
2021/07/24 03:20:51;;;;;;;7.57;6.07;;;;;;;13.86;76.67;101528.56;3579671;40;20298;-78
2021/07/24 03:23:17;;;;;;;5.97;5.17;;;;;;;13.87;76.74;101520.00;3584921;40;20237;-77
2021/07/24 03:25:42;;;;;;;8.03;6.07;;;;;;;13.87;76.88;101515.72;3584461;40;20596;-78
2021/07/24 03:28:08;;;;;;;6.27;5.67;;;;;;;13.88;76.52;101516.56;3590923;40;20230;-78
2021/07/24 03:30:33;;;;;;;9.00;7.10;;;;;;;13.88;77.23;101508.84;3581231;40;20228;-78
2021/07/24 03:32:58;;;;;;;9.77;7.17;;;;;;;13.92;76.72;101510.66;3591245;40;20261;-77
2021/07/24 03:35:24;;;;;;;5.80;5.20;;;;;;;13.97;77.34;101516.72;3590882;40;20616;-78
2021/07/24 03:37:49;;;;;;;7.50;6.40;;;;;;;14.02;77.82;101509.94;3590673;40;20243;-78
2021/07/24 03:40:14;;;;;;;8.07;6.67;;;;;;;14.06;77.65;101510.03;3586782;40;20292;-78
2021/07/24 03:42:39;;;;;;;11.50;8.77;;;;;;;14.10;78.15;101508.38;3576353;40;20615;-77
2021/07/24 03:45:05;;;;;;;9.77;8.50;;;;;;;14.15;78.17;101511.88;3581802;40;20221;-78
2021/07/24 03:47:32;;;;;;;11.67;8.53;;;;;;;14.18;78.47;101515.38;3573330;40;20213;-78
2021/07/24 03:49:57;;;;;;;7.90;6.97;;;;;;;14.27;77.97;101514.69;3590728;40;20279;-78
2021/07/24 03:52:22;;;;;;;8.33;7.00;;;;;;;14.33;78.04;101520.81;3581264;40;20233;-77
2021/07/24 03:54:47;;;;;;;10.57;8.37;;;;;;;14.36;77.96;101518.25;3590357;40;20223;-78
2021/07/24 03:57:13;;;;;;;10.63;9.03;;;;;;;14.38;78.49;101513.13;3590417;40;20230;-78
2021/07/24 03:59:38;;;;;;;11.93;9.43;;;;;;;14.41;78.44;101520.91;3589130;40;20233;-78
2021/07/24 04:02:07;;;;;;;8.93;8.00;;;;;;;14.43;78.29;101517.50;3580510;40;20214;-77
2021/07/24 04:04:33;;;;;;;11.10;9.37;;;;;;;14.45;78.31;101518.38;3580993;40;20240;-78
2021/07/24 04:06:59;;;;;;;11.83;10.23;;;;;;;14.45;77.70;101518.38;3581021;40;20234;-78
2021/07/24 04:09:26;;;;;;;10.10;8.07;;;;;;;14.54;77.69;101515.94;3580185;40;20226;-78
2021/07/24 04:11:51;;;;;;;12.10;10.17;;;;;;;14.67;78.24;101515.28;3581090;40;20475;-77
2021/07/24 04:14:16;;;;;;;11.67;10.20;;;;;;;14.68;77.86;101522.16;3571559;40;20299;-78
2021/07/24 04:16:42;;;;;;;8.83;7.87;;;;;;;14.69;78.16;101518.72;3571214;40;20218;-77
2021/07/24 04:19:07;;;;;;;8.47;7.30;;;;;;;14.74;78.19;101532.53;3580301;40;20508;-77
2021/07/24 04:21:32;;;;;;;11.07;9.10;;;;;;;14.75;77.74;101528.25;3580953;40;20225;-78
2021/07/24 04:23:58;;;;;;;10.57;9.47;;;;;;;14.75;77.90;101518.81;3581714;40;20538;-77
2021/07/24 04:26:24;;;;;;;11.50;8.90;;;;;;;14.76;78.15;101511.94;3579811;40;20226;-78
2021/07/24 04:28:49;;;;;;;12.77;9.60;;;;;;;14.78;77.80;101505.09;3590675;40;20225;-77
2021/07/24 04:31:15;;;;;;;10.77;9.10;;;;;;;14.79;78.39;101501.69;3590707;40;20410;-77
2021/07/24 04:33:41;;;;;;;12.00;9.80;;;;;;;14.83;77.81;101508.59;3581384;40;20261;-77
2021/07/24 04:36:07;;;;;;;11.10;9.57;;;;;;;14.86;78.75;101512.09;3590377;40;20435;-78
2021/07/24 04:38:32;;;;;;;11.33;10.17;;;;;;;14.90;78.30;101512.97;3590652;40;20604;-78
2021/07/24 04:40:58;;;;;;;8.93;8.03;;;;;;;14.97;77.92;101504.50;3590707;40;20510;-78
2021/07/24 04:43:23;;;;;;;11.37;9.20;;;;;;;15.02;78.07;101513.16;3581059;40;20277;-78
2021/07/24 04:45:48;;;;;;;13.33;9.73;;;;;;;15.06;78.10;101514.91;3590787;40;20221;-78
2021/07/24 04:48:13;;;;;;;9.50;8.30;;;;;;;15.12;78.45;101512.41;3590967;40;20222;-78
2021/07/24 04:50:45;;;;;;;9.57;8.57;;;;;;;15.18;77.75;101508.19;3590517;40;20217;-78
2021/07/24 04:53:12;;;;;;;9.17;7.97;;;;;;;15.24;77.81;101512.56;3590246;40;20263;-78
2021/07/24 04:55:38;;;;;;;10.47;9.37;;;;;;;15.36;77.83;101521.31;3590581;40;20651;-77
2021/07/24 04:58:06;;;;;;;8.83;7.77;;;;;;;15.44;77.48;101518.81;3590784;40;20219;-78
2021/07/24 05:00:32;;;;;;;8.80;7.70;;;;;;;15.57;77.23;101521.53;3589114;40;20702;-78
2021/07/24 05:02:57;;;;;;;12.30;9.63;;;;;;;15.68;76.79;101521.66;3585129;40;20631;-79
2021/07/24 05:05:23;;;;;;;8.33;7.43;;;;;;;15.69;76.74;101526.81;3581400;40;20228;-78
2021/07/24 05:07:48;;;;;;;12.70;9.60;;;;;;;15.74;76.84;101530.31;3584197;40;20289;-78
2021/07/24 05:10:13;;;;;;;10.63;7.80;;;;;;;15.81;76.74;101533.81;3572816;40;20222;-78
2021/07/24 05:12:40;;;;;;;9.90;8.30;;;;;;;15.96;76.36;101542.59;3572031;40;20234;-78
2021/07/24 05:15:06;;;;;;;11.23;9.30;;;;;;;16.04;76.59;101555.56;3580206;40;20279;-78
2021/07/24 05:17:31;;;;;;;12.97;9.57;;;;;;;16.22;76.19;101555.72;3581223;40;20222;-78
2021/07/24 05:19:57;;;;;;;11.80;8.80;;;;;;;16.25;76.27;101561.78;3577351;40;20233;-78
2021/07/24 05:22:22;;;;;;;9.77;7.67;;;;;;;16.38;75.87;101558.44;3589824;40;20221;-78
2021/07/24 05:24:47;;;;;;;10.80;8.10;;;;;;;16.49;75.39;101551.63;3581255;40;20579;-78
2021/07/24 05:27:13;;;;;;;7.73;6.73;;;;;;;16.57;75.43;101551.72;3581420;40;20218;-78
2021/07/24 05:29:39;;;;;;;10.03;7.50;;;;;;;16.63;75.67;101547.41;3582001;40;20214;-78
2021/07/24 05:32:06;;;;;;;11.13;8.27;;;;;;;16.74;75.26;101550.94;3584865;40;20302;-78
2021/07/24 05:34:31;;;;;;;10.73;7.83;;;;;;;16.80;75.06;101547.53;3589720;40;20256;-79
2021/07/24 05:36:56;;;;;;;12.50;9.60;;;;;;;16.99;74.96;101550.19;3581878;40;20222;-78
2021/07/24 05:39:21;;;;;;;10.53;8.60;;;;;;;17.03;74.59;101538.13;3594929;40;20643;-79
2021/07/24 05:41:47;;;;;;;11.83;9.73;;;;;;;17.12;73.89;101531.28;3593651;40;20225;-78
2021/07/24 05:44:14;;;;;;;12.60;10.40;;;;;;;17.03;74.39;101535.53;3590297;40;20643;-78
2021/07/24 05:46:39;;;;;;;10.13;9.10;;;;;;;17.08;74.15;101523.53;3590171;40;20221;-78
2021/07/24 05:49:05;;;;;;;10.97;7.27;;;;;;;17.09;74.05;101526.09;3580320;40;20236;-78
2021/07/24 05:51:30;;;;;;;11.77;8.50;;;;;;;17.10;73.98;101521.78;3590853;40;20222;-78
2021/07/24 05:53:55;;;;;;;10.40;8.93;;;;;;;17.15;74.20;101531.31;3590820;40;20256;-78
2021/07/24 05:56:21;;;;;;;11.17;9.23;;;;;;;17.30;73.74;101526.19;3581574;40;20532;-78
2021/07/24 05:58:46;;;;;;;10.63;9.13;;;;;;;17.32;74.16;101524.44;3590664;40;20229;-77
2021/07/24 06:01:12;;;;;;;13.53;9.70;;;;;;;17.63;72.62;101518.50;3590928;40;20221;-78
2021/07/24 06:03:38;;;;;;;9.77;8.20;;;;;;;17.59;72.84;101505.56;3590878;40;20248;-78
2021/07/24 06:06:03;;;;;;;10.33;8.47;;;;;;;17.72;72.99;101504.69;3590707;40;20226;-78
2021/07/24 06:08:29;;;;;;;10.40;8.37;;;;;;;17.71;72.58;101502.97;3591006;40;20274;-78
2021/07/24 06:11:01;;;;;;;10.10;7.57;;;;;;;17.81;72.67;101505.59;3580992;40;20730;-78
2021/07/24 06:13:31;;;;;;;11.97;9.53;;;;;;;18.09;71.40;101507.31;3590633;40;20241;-79
2021/07/24 06:15:57;;;;;;;8.10;7.17;;;;;;;18.12;71.72;101509.91;3590991;40;20225;-79
2021/07/24 06:18:22;;;;;;;8.37;7.47;;;;;;;18.21;71.76;101506.44;3581277;40;20282;-79
2021/07/24 06:20:49;;;;;;;12.83;9.87;;;;;;;18.31;71.66;101508.16;3590785;40;20229;-79
2021/07/24 06:23:17;;;;;;;10.97;9.40;;;;;;;18.40;71.60;101500.38;3590152;40;20224;-78
2021/07/24 06:25:44;;;;;;;8.67;6.47;;;;;;;18.56;71.33;101497.75;3575868;40;20233;-79
2021/07/24 06:28:10;;;;;;;11.77;8.45;;;;;;;19.11;68.76;101498.44;3584359;40;20479;-78
2021/07/24 06:30:36;;;;;;;12.30;8.70;;;;;;;19.11;67.82;101499.28;3581650;40;20234;-78
2021/07/24 06:33:01;;;;;;;7.97;6.73;;;;;;;19.10;68.59;101489.75;3580163;40;20242;-78
2021/07/24 06:35:26;;;;;;;7.67;6.03;;;;;;;19.17;68.64;101475.03;3588049;40;20233;-79
2021/07/24 06:37:52;;;;;;;8.13;6.97;;;;;;;19.25;69.22;101465.50;3590596;40;20213;-78
2021/07/24 06:40:18;;;;;;;11.53;8.87;;;;;;;19.34;68.95;101458.50;3590424;40;20242;-78
2021/07/24 06:42:43;;;;;;;8.97;6.80;;;;;;;19.52;68.77;101458.38;3588182;40;20230;-79
2021/07/24 06:45:09;;;;;;;10.93;8.40;;;;;;;19.77;66.62;101459.03;3571308;40;20283;-79
2021/07/24 06:47:34;;;;;;;9.90;8.67;;;;;;;19.93;66.72;101445.03;3580417;40;20222;-78
2021/07/24 06:49:59;;;;;;;8.20;6.30;;;;;;;19.95;67.19;101444.13;3589463;40;20221;-79
2021/07/24 06:52:24;;;;;;;10.97;7.00;;;;;;;20.22;66.11;101445.66;3590965;40;20290;-78
2021/07/24 06:54:50;;;;;;;9.90;8.00;;;;;;;20.47;63.79;101440.19;3590897;40;20473;-79
2021/07/24 06:57:15;;;;;;;9.17;7.27;;;;;;;20.64;63.67;101434.78;3580807;40;20276;-79
2021/07/24 06:59:40;;;;;;;8.83;7.07;;;;;;;20.54;63.62;101431.41;3571642;40;20617;-79
2021/07/24 07:02:06;;;;;;;9.80;6.43;;;;;;;20.70;64.21;101434.69;3582249;40;20214;-79
2021/07/24 07:04:31;;;;;;;11.27;8.23;;;;;;;20.89;62.85;101434.44;3581877;40;20296;-78
2021/07/24 07:06:57;;;;;;;9.27;6.50;;;;;;;20.85;62.80;101417.13;3574075;40;20229;-80
2021/07/24 07:09:22;;;;;;;11.17;7.33;;;;;;;21.19;60.69;101428.00;3562544;40;20315;-75
2021/07/24 07:11:47;;;;;;;6.77;6.07;;;;;;;21.53;59.59;101435.28;3582443;40;20235;-78
2021/07/24 07:14:12;;;;;;;7.07;6.37;;;;;;;21.56;58.81;101422.16;3581987;40;20237;-78
2021/07/24 07:16:38;;;;;;;8.47;6.00;;;;;;;21.40;60.86;101422.44;3581499;40;20590;-79
2021/07/24 07:19:04;;;;;;;9.20;6.57;;;;;;;22.01;58.64;101417.94;3578356;40;20236;-78
2021/07/24 07:21:29;;;;;;;8.30;6.87;;;;;;;22.00;57.80;101416.22;3591878;40;20221;-79
2021/07/24 07:23:55;;;;;;;7.63;5.97;;;;;;;22.13;57.05;101413.38;3587861;40;20322;-78
2021/07/24 07:26:25;;;;;;;9.60;6.47;;;;;;;22.29;56.49;101413.97;3579910;40;20244;-78
2021/07/24 07:28:50;;;;;;;8.43;5.80;;;;;;;21.97;58.35;101408.47;3587847;40;20524;-79
2021/07/24 07:31:16;;;;;;;8.33;6.27;;;;;;;21.86;58.95;101403.44;3582817;40;20229;-79
2021/07/24 07:33:41;;;;;;;8.67;6.27;;;;;;;22.33;57.15;101402.53;3582747;40;20237;-78
2021/07/24 07:36:06;;;;;;;8.03;5.80;;;;;;;22.40;56.78;101401.53;3592165;40;20223;-79
2021/07/24 07:38:32;;;;;;;7.00;5.80;;;;;;;22.40;57.43;101401.53;3591829;40;20603;-79
2021/07/24 07:40:57;;;;;;;8.63;5.93;;;;;;;22.47;57.19;101397.09;3592372;40;20220;-79
2021/07/24 07:43:23;;;;;;;7.63;5.57;;;;;;;22.48;56.72;101401.44;3592091;40;20576;-78
2021/07/24 07:45:48;;;;;;;7.53;5.40;;;;;;;22.61;58.33;101398.50;3573106;40;20222;-78
2021/07/24 07:48:13;;;;;;;8.67;6.70;;;;;;;22.77;55.81;101396.44;3572691;40;20265;-79
2021/07/24 07:50:41;;;;;;;7.10;5.87;;;;;;;22.81;56.58;101391.13;3581737;40;20271;-79
2021/07/24 07:53:06;;;;;;;7.70;6.23;;;;;;;23.02;55.81;101397.63;3582213;40;20244;-79
2021/07/24 07:55:31;;;;;;;6.37;5.00;;;;;;;23.22;55.57;101391.09;3582544;40;20226;-79
2021/07/24 07:57:57;;;;;;;7.38;5.70;;;;;;;23.10;54.90;101393.94;3582306;40;20284;-78
2021/07/24 08:00:22;;;;;;;8.05;5.70;;;;;;;23.41;53.63;101383.66;3572794;40;20300;-79
2021/07/24 08:02:52;;;;;;;6.03;5.00;;;;;;;23.47;53.93;101380.88;3582043;40;20505;-78
2021/07/24 08:05:18;;;;;;;6.97;5.40;;;;;;;23.43;53.48;101379.25;3581774;40;20507;-79
2021/07/24 08:07:43;;;;;;;10.70;5.57;;;;;;;23.80;52.10;101390.53;3581904;40;20241;-78
2021/07/24 08:10:08;;;;;;;8.32;5.82;;;;;;;23.77;51.89;101378.38;3571121;40;20254;-79
2021/07/24 08:12:34;;;;;;;7.85;5.60;;;;;;;23.95;52.88;101369.22;3581349;40;20240;-79
2021/07/24 08:14:59;;;;;;;6.68;4.68;;;;;;;24.22;49.72;101365.84;3582286;40;20320;-80
2021/07/24 08:17:24;;;;;;;7.63;5.30;;;;;;;24.35;50.19;101365.44;3581940;40;20556;-79
2021/07/24 08:19:50;;;;;;;7.72;5.30;;;;;;;24.42;50.08;101363.50;3592022;40;20221;-79
2021/07/24 08:22:15;;;;;;;7.05;5.03;;;;;;;24.42;50.84;101347.78;3590799;40;20236;-79
2021/07/24 08:24:40;;;;;;;6.97;5.35;;;;;;;24.60;49.26;101349.91;3576557;40;20307;-79
2021/07/24 08:27:06;;;;;;;6.30;4.82;;;;;;;24.44;49.17;101343.38;3582229;40;20217;-79
2021/07/24 08:29:31;;;;;;;5.45;4.65;;;;;;;24.65;48.70;101343.63;3582034;40;20323;-79
2021/07/24 08:31:58;;;;;;;7.35;4.93;;;;;;;24.51;50.38;101339.66;3572628;40;20226;-79
2021/07/24 08:34:23;;;;;;;6.50;5.45;;;;;;;24.62;48.18;101346.31;3573054;40;20234;-79
2021/07/24 08:36:48;;;;;;;5.43;3.95;;;;;;;24.58;48.18;101344.66;3582069;40;20222;-78
2021/07/24 08:39:14;;;;;;;8.40;5.80;;;;;;;24.54;47.31;101334.34;3581781;40;20230;-79
2021/07/24 08:41:41;;;;;;;5.07;4.57;;;;;;;24.76;46.82;101333.66;3581697;40;20230;-79
2021/07/24 08:44:06;;;;;;;6.45;4.57;;;;;;;25.03;46.46;101330.19;3581584;40;20303;-78
2021/07/24 08:46:33;;;;;;;4.85;4.38;;;;;;;25.09;47.86;101324.72;3581183;40;20226;-80
2021/07/24 08:48:58;;;;;;;5.85;4.80;;;;;;;25.21;46.22;101326.09;3582035;40;20214;-78
2021/07/24 08:51:24;;;;;;;6.10;4.47;;;;;;;25.37;46.08;101328.19;3581938;40;20255;-78
2021/07/24 08:53:50;;;;;;;5.95;4.68;;;;;;;25.60;44.40;101319.56;3573062;40;20249;-79
2021/07/24 08:56:26;;;;;;;7.03;4.70;;;;;;;25.56;44.66;101315.31;3581868;40;20532;-79
2021/07/24 08:58:54;;;;;;;5.95;4.22;;;;;;;25.60;42.78;101312.53;3582088;40;20237;-78
2021/07/24 09:01:21;;;;;;;5.43;3.95;;;;;;;25.37;44.94;101322.13;3572674;40;20226;-79
2021/07/24 09:03:47;;;;;;;5.15;4.65;;;;;;;25.84;43.36;101318.69;3572759;40;20281;-78
2021/07/24 09:06:20;;;;;;;5.10;4.55;;;;;;;25.90;43.94;101321.97;3583668;40;20489;-78
2021/07/24 09:08:51;;;;;;;5.95;4.70;;;;;;;25.94;43.84;101320.97;3579723;40;20257;-78
2021/07/24 09:11:20;;;;;;;5.90;4.00;;;;;;;26.09;43.83;101309.03;3570761;40;20530;-78
2021/07/24 09:13:46;;;;;;;4.63;4.05;;;;;;;25.96;44.93;101308.66;3577674;40;20260;-79
2021/07/24 09:16:11;;;;;;;5.05;4.18;;;;;;;26.24;42.40;101300.63;3585722;40;20226;-78
2021/07/24 09:18:37;;;;;;;7.90;4.93;;;;;;;26.62;41.13;101306.13;3572528;40;20244;-78
2021/07/24 09:21:03;;;;;;;5.35;4.65;;;;;;;26.56;41.14;101300.22;3582583;40;20225;-78
2021/07/24 09:23:36;;;;;;;5.65;4.25;;;;;;;26.36;43.24;101308.03;3586791;40;20233;-79
2021/07/24 09:26:04;;;;;;;5.75;4.28;;;;;;;26.32;41.55;101306.41;3588995;40;20229;-78
2021/07/24 09:28:29;;;;;;;5.25;4.03;;;;;;;26.62;41.74;101308.75;3582943;40;20584;-78
2021/07/24 09:30:55;;;;;;;6.70;4.15;;;;;;;26.67;41.59;101301.53;3591715;40;20244;-78
2021/07/24 09:33:20;;;;;;;4.60;4.10;;;;;;;26.65;42.06;101299.91;3591973;40;20248;-78
2021/07/24 09:35:53;;;;;;;5.20;4.50;;;;;;;26.81;40.50;101298.38;3591496;40;20221;-78
2021/07/24 09:38:33;;;;;;;6.63;4.32;;;;;;;26.99;39.85;101281.88;3591760;40;20539;-78
2021/07/24 09:41:01;;;;;;;5.82;4.35;;;;;;;27.18;39.37;101286.34;3582591;40;20225;-79
2021/07/24 09:43:29;;;;;;;5.78;4.30;;;;;;;27.09;40.77;101286.69;3582227;40;20262;-78
2021/07/24 09:46:18;;;;;;;4.78;4.00;;;;;;;27.37;39.01;101289.91;3580848;40;20241;-78
2021/07/24 09:48:44;;;;;;;5.25;4.40;;;;;;;27.49;38.39;101280.66;3582248;40;20238;-78
2021/07/24 09:51:10;;;;;;;6.35;4.15;;;;;;;27.22;41.10;101280.00;3572802;40;20254;-79
2021/07/24 09:53:37;;;;;;;4.57;4.07;;;;;;;27.29;41.44;101278.84;3572468;40;20257;-79
2021/07/24 09:56:03;;;;;;;5.72;4.10;;;;;;;27.58;40.78;101290.78;3572760;40;20608;-79
2021/07/24 09:58:32;;;;;;;4.55;4.15;;;;;;;27.52;39.33;101278.72;3581649;40;20532;-79
2021/07/24 10:01:10;;;;;;;5.75;4.00;;;;;;;27.44;41.31;101293.16;3571120;40;20640;-78
2021/07/24 10:03:39;;;;;;;5.45;4.53;;;;;;;27.70;40.91;101293.72;3572110;40;20245;-78
2021/07/24 10:06:14;;;;;;;7.38;5.05;;;;;;;27.82;39.73;101287.94;3584908;40;20216;-79
2021/07/24 10:09:02;;;;;;;5.07;4.22;;;;;;;27.95;39.63;101281.19;3593583;40;20240;-79
2021/07/24 10:11:30;;;;;;;6.43;5.20;;;;;;;28.26;38.75;101280.66;3565359;40;20229;-78
2021/07/24 10:13:56;;;;;;;4.82;4.32;;;;;;;28.00;39.87;101294.19;3581999;40;20524;-78
2021/07/24 10:16:36;;;;;;;4.90;4.30;;;;;;;27.94;41.25;101286.53;3591398;40;20225;-79
2021/07/24 10:19:02;;;;;;;5.22;4.72;;;;;;;28.18;38.44;101285.44;3578643;40;20228;-78
2021/07/24 10:21:27;;;;;;;7.30;6.60;;;;;;;28.13;38.92;101287.44;3592233;40;20275;-79
2021/07/24 10:23:52;;;;;;;6.85;5.43;;;;;;;28.27;38.35;101290.28;3588394;40;20624;-78
2021/07/24 10:26:25;;;;;;;7.35;5.10;;;;;;;28.32;37.99;101283.03;3591374;40;20599;-78
2021/07/24 10:28:57;;;;;;;6.70;5.25;;;;;;;28.15;37.79;101281.16;3578603;40;20214;-78
2021/07/24 10:31:30;;;;;;;7.70;5.22;;;;;;;27.97;38.95;101283.78;3578643;40;20229;-79
2021/07/24 10:34:02;;;;;;;5.72;4.72;;;;;;;28.23;38.39;101275.53;3580343;40;20601;-78
2021/07/24 10:36:39;;;;;;;5.97;5.32;;;;;;;28.62;37.58;101266.66;3582553;40;20237;-78
2021/07/24 10:39:11;;;;;;;5.15;4.60;;;;;;;28.21;42.03;101266.84;3586454;40;20237;-78
2021/07/24 10:41:38;;;;;;;7.72;5.35;;;;;;;28.35;38.65;101261.78;3583136;40;20248;-78
2021/07/24 10:44:08;;;;;;;5.97;5.05;;;;;;;28.24;39.62;101259.66;3585455;40;20252;-79
2021/07/24 10:46:40;;;;;;;6.82;5.53;;;;;;;28.67;38.55;101253.22;3590294;40;20270;-80
2021/07/24 10:49:05;;;;;;;6.10;4.82;;;;;;;28.88;38.58;101249.56;3582119;40;20292;-77
2021/07/24 10:51:54;;;;;;;6.03;5.43;;;;;;;28.70;38.21;101246.00;3580684;40;20237;-78
2021/07/24 10:54:20;;;;;;;6.72;5.05;;;;;;;28.58;40.36;101243.97;3571704;40;20270;-78
2021/07/24 10:56:46;;;;;;;5.85;5.22;;;;;;;29.09;37.74;101235.31;3585030;40;20654;-77
2021/07/24 10:59:17;;;;;;;9.35;5.45;;;;;;;29.31;37.73;101246.47;3581214;40;20236;-77
2021/07/24 11:01:56;;;;;;;8.00;5.78;;;;;;;29.33;38.02;101239.34;3590313;40;20232;-77
2021/07/24 11:04:36;;;;;;;6.45;5.10;;;;;;;29.26;37.56;101232.66;3588131;40;20249;-78
2021/07/24 11:07:19;;;;;;;7.07;5.70;;;;;;;28.77;39.77;101236.00;3582181;40;20260;-78
2021/07/24 11:09:46;;;;;;;5.10;4.60;;;;;;;28.84;40.68;101229.53;3578380;40;20226;-78
2021/07/24 11:12:13;;;;;;;5.63;4.85;;;;;;;28.94;39.61;101233.41;3559918;40;20749;-78
2021/07/24 11:14:41;;;;;;;7.15;5.63;;;;;;;29.46;38.01;101224.56;3579463;40;20257;-78
2021/07/24 11:17:06;;;;;;;6.13;5.57;;;;;;;29.48;39.41;101225.34;3580122;40;20293;-78
2021/07/24 11:19:33;;;;;;;6.35;5.75;;;;;;;29.51;39.30;101215.47;3579733;40;20256;-78
2021/07/24 11:22:17;;;;;;;7.50;5.63;;;;;;;29.81;36.67;101213.91;3590898;40;20213;-79
2021/07/24 11:24:50;;;;;;;5.85;5.28;;;;;;;29.91;36.20;101201.88;3580275;40;20242;-78